createdAt,value
2023-04-18T00:00:43.184Z,100191.09
2023-04-18T00:03:46.008Z,100192.75
2023-04-18T00:06:49.927Z,100193.66
2023-04-18T00:09:51.596Z,100187.78
2023-04-18T00:12:53.213Z,100177.62
2023-04-18T00:15:55.199Z,100178.63
2023-04-18T00:18:57.485Z,100181.53
2023-04-18T00:21:59.940Z,100189.97
2023-04-18T00:25:01.560Z,100184.66
2023-04-18T00:28:03.171Z,100184.75
2023-04-18T00:31:05.160Z,100190.66
2023-04-18T00:34:06.885Z,100186.41
2023-04-18T00:37:08.727Z,100189.28
2023-04-18T00:40:10.898Z,100192.44
2023-04-18T00:43:16.996Z,100187.44
2023-04-18T00:46:18.711Z,100179.31
2023-04-18T00:49:21.670Z,100189.34
2023-04-18T00:52:27.103Z,100190.63
2023-04-18T00:55:29.661Z,100186.41
2023-04-18T00:58:32.192Z,100182.84
2023-04-18T01:01:33.971Z,100190.06
2023-04-18T01:04:35.795Z,100186.22
2023-04-18T01:07:41.756Z,100185.69
2023-04-18T01:10:43.508Z,100188.91
2023-04-18T01:14:02.185Z,100191.38
2023-04-18T01:17:03.884Z,100185.22
2023-04-18T01:20:06.507Z,100188.69
2023-04-18T01:23:10.536Z,100186.00
2023-04-18T01:26:12.363Z,100183.50
2023-04-18T01:29:13.983Z,100189.44
2023-04-18T01:32:17.727Z,100186.00
2023-04-18T01:35:19.576Z,100187.50
2023-04-18T01:38:21.207Z,100194.34
2023-04-18T01:41:23.251Z,100191.78
2023-04-18T01:44:24.887Z,100197.09
2023-04-18T01:47:26.612Z,100195.09
2023-04-18T01:50:28.278Z,100195.75
2023-04-18T01:53:30.871Z,100199.34
2023-04-18T01:56:32.552Z,100196.94
2023-04-18T01:59:34.205Z,100197.44
2023-04-18T02:02:35.987Z,100198.19
2023-04-18T02:05:37.716Z,100201.62
2023-04-18T02:08:39.329Z,100201.53
2023-04-18T02:11:40.996Z,100202.50
2023-04-18T02:14:42.716Z,100205.09
2023-04-18T02:17:44.452Z,100197.91
2023-04-18T02:20:46.074Z,100195.50
2023-04-18T02:23:47.667Z,100200.78
2023-04-18T02:26:49.764Z,100206.37
2023-04-18T02:29:51.360Z,100204.06
2023-04-18T02:32:54.303Z,100203.75
2023-04-18T02:35:56.160Z,100202.84
2023-04-18T02:38:57.816Z,100206.66
2023-04-18T02:41:59.485Z,100208.19
2023-04-18T02:45:01.156Z,100200.47
2023-04-18T02:48:02.917Z,100205.63
2023-04-18T02:51:06.111Z,100209.75
2023-04-18T02:54:07.894Z,100206.50
2023-04-18T02:57:09.521Z,100217.81
2023-04-18T03:00:11.950Z,100215.31
2023-04-18T03:03:13.671Z,100216.19
2023-04-18T03:06:15.317Z,100211.78
2023-04-18T03:09:17.128Z,100218.88
2023-04-18T03:12:18.776Z,100228.34
2023-04-18T03:15:20.656Z,100213.66
2023-04-18T03:18:22.325Z,100221.34
2023-04-18T03:21:23.991Z,100214.97
2023-04-18T03:24:25.610Z,100211.94
2023-04-18T03:27:27.222Z,100223.09
2023-04-18T03:30:28.859Z,100218.41
2023-04-18T03:33:30.566Z,100215.47
2023-04-18T03:36:32.230Z,100220.00
2023-04-18T03:39:33.882Z,100218.88
2023-04-18T03:42:35.530Z,100218.12
2023-04-18T03:45:37.376Z,100218.00
2023-04-18T03:48:39.017Z,100223.75
2023-04-18T03:51:47.772Z,100222.97
2023-04-18T03:54:49.612Z,100220.50
2023-04-18T03:57:51.573Z,100228.19
2023-04-18T04:00:53.304Z,100226.53
2023-04-18T04:03:55.059Z,100229.41
2023-04-18T04:06:56.984Z,100238.81
2023-04-18T04:09:58.854Z,100231.84
2023-04-18T04:13:00.597Z,100236.97
2023-04-18T04:16:02.584Z,100242.72
2023-04-18T04:19:04.712Z,100243.00
2023-04-18T04:22:06.403Z,100247.28
2023-04-18T04:25:08.629Z,100248.94
2023-04-18T04:28:11.019Z,100252.22
2023-04-18T04:31:12.630Z,100247.06
2023-04-18T04:34:14.630Z,100256.78
2023-04-18T04:37:18.825Z,100253.44
2023-04-18T04:40:20.550Z,100256.50
2023-04-18T04:43:22.179Z,100264.06
2023-04-18T04:46:23.976Z,100269.16
2023-04-18T04:49:25.950Z,100265.25
2023-04-18T04:52:27.583Z,100266.19
2023-04-18T04:55:29.256Z,100265.25
2023-04-18T04:58:31.157Z,100267.91
2023-04-18T05:01:34.807Z,100269.34
2023-04-18T05:04:36.992Z,100268.09
2023-04-18T05:07:38.733Z,100273.06
2023-04-18T05:10:41.044Z,100278.50
2023-04-18T05:13:42.772Z,100281.91
2023-04-18T05:16:44.535Z,100279.66
2023-04-18T05:19:46.452Z,100284.28
2023-04-18T05:22:48.107Z,100283.12
2023-04-18T05:25:49.894Z,100286.00
2023-04-18T05:28:51.697Z,100289.34
2023-04-18T05:31:54.035Z,100294.06
2023-04-18T05:34:56.075Z,100295.34
2023-04-18T05:37:58.728Z,100298.25
2023-04-18T05:41:00.488Z,100292.44
2023-04-18T05:44:05.588Z,100295.22
2023-04-18T05:47:07.649Z,100304.59
2023-04-18T05:50:09.637Z,100308.84
2023-04-18T05:53:11.307Z,100294.16
2023-04-18T05:56:12.898Z,100301.37
2023-04-18T05:59:14.576Z,100299.41
2023-04-18T06:02:16.368Z,100294.09
2023-04-18T06:05:18.240Z,100294.97
2023-04-18T06:08:20.244Z,100297.63
2023-04-18T06:11:22.732Z,100310.88
2023-04-18T06:14:24.437Z,100310.97
2023-04-18T06:17:26.126Z,100309.75
2023-04-18T06:20:27.836Z,100306.69
2023-04-18T06:23:29.469Z,100312.31
2023-04-18T06:26:32.085Z,100311.53
2023-04-18T06:29:35.527Z,100312.16
2023-04-18T06:32:37.834Z,100313.78
2023-04-18T06:35:39.731Z,100309.19
2023-04-18T06:38:41.358Z,100313.59
2023-04-18T06:41:42.980Z,100311.13
2023-04-18T06:44:44.720Z,100313.88
2023-04-18T06:47:47.840Z,100320.72
2023-04-18T06:50:49.507Z,100327.63
2023-04-18T06:53:53.031Z,100326.56
2023-04-18T06:56:54.759Z,100322.41
2023-04-18T06:59:56.380Z,100328.19
2023-04-18T07:02:58.164Z,100332.84
2023-04-18T07:06:00.038Z,100336.19
2023-04-18T07:09:01.889Z,100333.88
2023-04-18T07:12:03.596Z,100337.34
2023-04-18T07:15:05.795Z,100341.56
2023-04-18T07:18:07.477Z,100341.56
2023-04-18T07:21:09.268Z,100345.16
2023-04-18T07:24:12.226Z,100346.94
2023-04-18T07:27:14.889Z,100346.69
2023-04-18T07:30:16.549Z,100347.38
2023-04-18T07:33:18.192Z,100345.75
2023-04-18T07:36:20.134Z,100349.75
2023-04-18T07:39:21.776Z,100349.28
2023-04-18T07:42:23.403Z,100345.69
2023-04-18T07:45:25.096Z,100349.25
2023-04-18T07:48:26.958Z,100350.13
2023-04-18T07:51:31.842Z,100358.72
2023-04-18T07:54:33.609Z,100353.41
2023-04-18T07:57:35.279Z,100362.91
2023-04-18T08:00:39.208Z,100359.00
2023-04-18T08:03:41.875Z,100365.44
2023-04-18T08:06:43.642Z,100361.25
2023-04-18T08:09:45.958Z,100361.91
2023-04-18T08:12:47.593Z,100366.34
2023-04-18T08:15:49.276Z,100379.94
2023-04-18T08:18:50.970Z,100370.47
2023-04-18T08:21:52.612Z,100378.56
2023-04-18T08:25:04.497Z,100377.28
2023-04-18T08:28:07.343Z,100369.28
2023-04-18T08:31:12.912Z,100382.44
2023-04-18T08:34:14.568Z,100380.97
2023-04-18T08:37:16.298Z,100388.00
2023-04-18T08:40:18.672Z,100383.34
2023-04-18T08:43:20.407Z,100395.53
2023-04-18T08:46:22.866Z,100388.75
2023-04-18T08:49:25.021Z,100400.91
2023-04-18T08:52:30.713Z,100394.53
2023-04-18T08:55:33.732Z,100394.41
2023-04-18T08:58:35.378Z,100392.03
2023-04-18T09:01:49.236Z,100398.09
2023-04-18T09:04:53.799Z,100392.16
2023-04-18T09:07:56.740Z,100400.97
2023-04-18T09:11:26.230Z,100394.84
2023-04-18T09:14:27.915Z,100400.28
2023-04-18T09:17:45.551Z,100400.84
2023-04-18T09:20:48.936Z,100408.38
2023-04-18T09:23:50.611Z,100406.63
2023-04-18T09:26:59.907Z,100403.06
2023-04-18T09:30:01.604Z,100405.22
2023-04-18T09:33:05.453Z,100405.38
2023-04-18T09:36:21.621Z,100408.81
2023-04-18T09:39:29.497Z,100403.22
2023-04-18T09:42:36.255Z,100407.50
2023-04-18T09:45:38.332Z,100401.88
2023-04-18T09:48:40.901Z,100411.66
2023-04-18T09:51:44.705Z,100411.06
2023-04-18T09:54:48.673Z,100401.81
2023-04-18T09:57:53.035Z,100404.31
2023-04-18T10:00:55.665Z,100417.81
2023-04-18T10:03:57.829Z,100404.59
2023-04-18T10:07:00.812Z,100412.53
2023-04-18T10:10:02.526Z,100406.50
2023-04-18T10:13:06.642Z,100405.63
2023-04-18T10:16:08.511Z,100401.16
2023-04-18T10:19:20.664Z,100405.47
2023-04-18T10:22:27.828Z,100411.47
2023-04-18T10:25:38.513Z,100408.53
2023-04-18T10:28:49.078Z,100402.09
2023-04-18T10:31:50.774Z,100402.66
2023-04-18T10:34:56.211Z,100397.97
2023-04-18T10:37:59.678Z,100409.69
2023-04-18T10:41:18.558Z,100403.50
2023-04-18T10:44:22.930Z,100404.47
2023-04-18T10:47:25.157Z,100394.91
2023-04-18T10:50:26.865Z,100405.38
2023-04-18T10:53:28.504Z,100396.34
2023-04-18T10:56:30.337Z,100409.09
2023-04-18T10:59:33.798Z,100401.97
2023-04-18T11:02:36.191Z,100413.19
2023-04-18T11:05:38.018Z,100404.66
2023-04-18T11:08:40.703Z,100404.72
2023-04-18T11:11:44.108Z,100408.19
2023-04-18T11:14:54.308Z,100419.44
2023-04-18T11:18:00.023Z,100416.97
2023-04-18T11:21:03.831Z,100400.31
2023-04-18T11:24:05.689Z,100418.81
2023-04-18T11:27:12.006Z,100413.53
2023-04-18T11:30:14.811Z,100424.09
2023-04-18T11:33:16.830Z,100423.22
2023-04-18T11:36:18.650Z,100424.97
2023-04-18T11:39:20.584Z,100429.38
2023-04-18T11:42:28.035Z,100424.06
2023-04-18T11:45:29.766Z,100431.78
2023-04-18T11:48:41.702Z,100430.22
2023-04-18T11:51:44.801Z,100423.06
2023-04-18T11:54:46.600Z,100427.47
2023-04-18T11:57:59.293Z,100419.69
2023-04-18T12:01:25.210Z,100417.91
2023-04-18T12:04:27.033Z,100413.41
2023-04-18T12:07:38.073Z,100408.25
2023-04-18T12:10:46.705Z,100415.22
2023-04-18T12:13:48.337Z,100416.16
2023-04-18T12:16:50.819Z,100409.09
2023-04-18T12:19:53.927Z,100416.84
2023-04-18T12:22:55.747Z,100412.66
2023-04-18T12:26:05.736Z,100420.47
2023-04-18T12:29:07.418Z,100417.69
2023-04-18T12:32:09.127Z,100407.28
2023-04-18T12:35:10.792Z,100414.06
2023-04-18T12:38:12.516Z,100411.62
2023-04-18T12:41:14.142Z,100397.69
2023-04-18T12:44:16.012Z,100399.31
2023-04-18T12:47:17.785Z,100394.13
2023-04-18T12:50:25.063Z,100401.69
2023-04-18T12:53:26.879Z,100389.63
2023-04-18T12:56:28.593Z,100395.31
2023-04-18T12:59:30.779Z,100394.62
2023-04-18T13:02:34.466Z,100399.34
2023-04-18T13:05:36.368Z,100401.34
2023-04-18T13:08:38.655Z,100400.94
2023-04-18T13:11:40.306Z,100398.09
2023-04-18T13:14:42.696Z,100405.19
2023-04-18T13:17:44.837Z,100408.84
2023-04-18T13:20:46.820Z,100408.00
2023-04-18T13:23:48.521Z,100400.19
2023-04-18T13:26:50.250Z,100397.69
2023-04-18T13:29:52.131Z,100409.09
2023-04-18T13:32:55.006Z,100404.72
2023-04-18T13:35:56.704Z,100407.34
2023-04-18T13:38:58.381Z,100405.47
2023-04-18T13:42:00.081Z,100405.63
2023-04-18T13:45:01.821Z,100406.50
2023-04-18T13:48:03.669Z,100408.19
2023-04-18T13:51:05.781Z,100409.22
2023-04-18T13:54:07.692Z,100404.41
2023-04-18T13:57:11.743Z,100401.22
2023-04-18T14:00:14.419Z,100414.34
2023-04-18T14:03:16.378Z,100399.47
2023-04-18T14:06:18.126Z,100402.91
2023-04-18T14:09:19.858Z,100399.41
2023-04-18T14:12:21.824Z,100400.19
2023-04-18T14:15:23.712Z,100401.16
2023-04-18T14:18:25.504Z,100395.81
2023-04-18T14:21:27.820Z,100399.37
2023-04-18T14:24:29.427Z,100393.06
2023-04-18T14:27:31.100Z,100392.25
2023-04-18T14:30:32.940Z,100389.53
2023-04-18T14:33:34.896Z,100392.84
2023-04-18T14:36:36.915Z,100388.47
2023-04-18T14:39:38.614Z,100387.72
2023-04-18T14:42:40.310Z,100383.28
2023-04-18T14:45:41.981Z,100384.25
2023-04-18T14:48:49.599Z,100384.28
2023-04-18T14:51:51.439Z,100385.25
2023-04-18T14:54:53.113Z,100381.81
2023-04-18T14:57:54.865Z,100383.63
2023-04-18T15:00:56.492Z,100385.41
2023-04-18T15:03:58.343Z,100382.75
2023-04-18T15:07:00.182Z,100388.91
2023-04-18T15:10:02.154Z,100376.59
2023-04-18T15:13:04.461Z,100374.84
2023-04-18T15:16:06.721Z,100372.16
2023-04-18T15:19:08.442Z,100368.56
2023-04-18T15:22:10.830Z,100369.37
2023-04-18T15:25:16.358Z,100371.12
2023-04-18T15:28:18.725Z,100371.03
2023-04-18T15:31:21.800Z,100372.81
2023-04-18T15:34:23.812Z,100372.66
2023-04-18T15:37:26.372Z,100370.25
2023-04-18T15:40:28.064Z,100378.00
2023-04-18T15:43:29.672Z,100370.97
2023-04-18T15:46:31.405Z,100368.47
2023-04-18T15:49:33.210Z,100380.00
2023-04-18T15:52:34.890Z,100370.28
2023-04-18T15:55:36.556Z,100379.06
2023-04-18T15:58:38.183Z,100369.44
2023-04-18T16:01:39.899Z,100375.44
2023-04-18T16:04:41.573Z,100377.97
2023-04-18T16:07:43.518Z,100372.41
2023-04-18T16:10:45.407Z,100369.72
2023-04-18T16:13:47.180Z,100366.19
2023-04-18T16:16:48.874Z,100374.94
2023-04-18T16:19:50.595Z,100379.25
2023-04-18T16:22:52.244Z,100375.44
2023-04-18T16:25:55.281Z,100372.81
2023-04-18T16:28:57.136Z,100384.22
2023-04-18T16:31:58.949Z,100376.28
2023-04-18T16:35:00.626Z,100374.53
2023-04-18T16:38:02.377Z,100371.94
2023-04-18T16:41:04.282Z,100379.81
2023-04-18T16:44:05.969Z,100381.53
2023-04-18T16:47:08.432Z,100375.28
2023-04-18T16:50:10.386Z,100382.25
2023-04-18T16:53:12.255Z,100371.84
2023-04-18T16:56:14.197Z,100382.16
2023-04-18T16:59:15.908Z,100383.16
2023-04-18T17:02:17.721Z,100384.75
2023-04-18T17:05:19.917Z,100385.59
2023-04-18T17:08:21.659Z,100391.44
2023-04-18T17:11:23.413Z,100387.09
2023-04-18T17:14:25.049Z,100387.81
2023-04-18T17:17:27.046Z,100394.47
2023-04-18T17:20:28.796Z,100396.41
2023-04-18T17:23:32.645Z,100411.06
2023-04-18T17:26:35.777Z,100409.19
2023-04-18T17:29:38.116Z,100413.25
2023-04-18T17:32:45.705Z,100418.34
2023-04-18T17:35:48.452Z,100416.00
2023-04-18T17:38:51.368Z,100428.97
2023-04-18T17:41:53.842Z,100429.75
2023-04-18T17:44:56.357Z,100441.78
2023-04-18T17:47:59.777Z,100437.34
2023-04-18T17:51:03.175Z,100450.53
2023-04-18T17:54:05.940Z,100450.75
2023-04-18T17:57:09.357Z,100456.09
2023-04-18T18:00:13.906Z,100448.94
2023-04-18T18:03:17.759Z,100459.00
2023-04-18T18:06:20.082Z,100457.69
2023-04-18T18:09:22.080Z,100461.91
2023-04-18T18:12:24.866Z,100467.31
2023-04-18T18:15:28.557Z,100460.50
2023-04-18T18:18:31.808Z,100465.78
2023-04-18T18:21:33.987Z,100464.72
2023-04-18T18:24:36.231Z,100471.00
2023-04-18T18:27:38.651Z,100467.31
2023-04-18T18:30:40.924Z,100474.13
2023-04-18T18:33:43.268Z,100482.75
2023-04-18T18:36:45.539Z,100480.91
2023-04-18T18:39:48.755Z,100480.03
2023-04-18T18:42:52.006Z,100483.47
2023-04-18T18:45:54.596Z,100486.62
2023-04-18T18:48:57.127Z,100486.75
2023-04-18T18:51:59.395Z,100488.34
2023-04-18T18:55:02.092Z,100483.81
2023-04-18T18:58:04.270Z,100488.16
2023-04-18T19:01:06.864Z,100483.78
2023-04-18T19:04:10.226Z,100487.13
2023-04-18T19:07:12.933Z,100489.16
2023-04-18T19:10:16.742Z,100488.16
2023-04-18T19:13:23.344Z,100485.59
2023-04-18T19:16:25.923Z,100487.31
2023-04-18T19:19:28.966Z,100479.78
2023-04-18T19:22:32.175Z,100486.69
2023-04-18T19:25:36.326Z,100481.72
2023-04-18T19:28:41.716Z,100484.19
2023-04-18T19:31:45.036Z,100476.38
2023-04-18T19:34:49.068Z,100478.16
2023-04-18T19:37:51.790Z,100471.34
2023-04-18T19:40:55.473Z,100475.13
2023-04-18T19:43:57.848Z,100475.25
2023-04-18T19:47:00.547Z,100480.19
2023-04-18T19:50:03.879Z,100479.25
2023-04-18T19:53:13.931Z,100482.62
2023-04-18T19:56:16.221Z,100471.16
2023-04-18T19:59:18.598Z,100480.41
2023-04-18T20:02:22.854Z,100477.75
2023-04-18T20:05:25.229Z,100472.56
2023-04-18T20:08:27.574Z,100473.25
2023-04-18T20:11:29.694Z,100472.22
2023-04-18T20:14:33.091Z,100473.06
2023-04-18T20:17:38.682Z,100479.59
2023-04-18T20:20:41.724Z,100477.69
2023-04-18T20:23:45.039Z,100475.84
2023-04-18T20:26:47.799Z,100477.75
2023-04-18T20:29:49.853Z,100470.22
2023-04-18T20:32:52.190Z,100472.22
2023-04-18T20:35:55.261Z,100473.91
2023-04-18T20:38:57.508Z,100471.47
2023-04-18T20:42:01.625Z,100474.06
2023-04-18T20:45:04.430Z,100476.69
2023-04-18T20:48:06.551Z,100476.50
2023-04-18T20:51:08.232Z,100473.00
2023-04-18T20:54:10.045Z,100469.28
2023-04-18T20:57:14.789Z,100470.50
2023-04-18T21:00:17.007Z,100479.03
2023-04-18T21:03:18.872Z,100474.25
2023-04-18T21:06:22.216Z,100473.22
2023-04-18T21:09:23.929Z,100470.50
2023-04-18T21:12:25.631Z,100474.97
2023-04-18T21:15:27.245Z,100464.56
2023-04-18T21:18:29.456Z,100464.37
2023-04-18T21:21:31.666Z,100462.03
2023-04-18T21:24:33.781Z,100454.97
2023-04-18T21:27:35.500Z,100462.88
2023-04-18T21:30:37.230Z,100464.25
2023-04-18T21:33:38.869Z,100463.94
2023-04-18T21:36:40.872Z,100460.31
2023-04-18T21:39:42.652Z,100460.50
2023-04-18T21:42:44.622Z,100461.50
2023-04-18T21:45:46.510Z,100450.16
2023-04-18T21:48:48.744Z,100451.09
2023-04-18T21:51:50.544Z,100453.00
2023-04-18T21:54:52.325Z,100439.69
2023-04-18T21:57:54.371Z,100450.03
2023-04-18T22:00:56.660Z,100435.09
2023-04-18T22:03:58.466Z,100441.69
2023-04-18T22:07:00.630Z,100438.19
2023-04-18T22:10:02.295Z,100439.00
2023-04-18T22:13:04.845Z,100432.50
2023-04-18T22:16:08.342Z,100432.44
2023-04-18T22:19:10.927Z,100437.88
2023-04-18T22:22:12.521Z,100432.50
2023-04-18T22:25:14.262Z,100430.59
2023-04-18T22:28:16.079Z,100428.81
2023-04-18T22:31:17.782Z,100426.13
2023-04-18T22:34:19.433Z,100421.72
2023-04-18T22:37:21.090Z,100419.09
2023-04-18T22:40:22.788Z,100418.12
2023-04-18T22:43:24.977Z,100418.16
2023-04-18T22:46:27.419Z,100415.34
2023-04-18T22:49:30.106Z,100410.75
2023-04-18T22:52:31.764Z,100409.87
2023-04-18T22:55:33.459Z,100406.50
2023-04-18T22:58:35.132Z,100401.12
2023-04-18T23:01:36.802Z,100396.78
2023-04-18T23:04:40.112Z,100397.63
2023-04-18T23:07:42.016Z,100394.09
2023-04-18T23:10:43.753Z,100381.88
2023-04-18T23:13:45.405Z,100389.81
2023-04-18T23:16:47.015Z,100386.00
2023-04-18T23:19:48.739Z,100385.16
2023-04-18T23:22:51.820Z,100384.34
2023-04-18T23:25:53.671Z,100381.44
2023-04-18T23:28:55.331Z,100378.16
2023-04-18T23:31:56.973Z,100363.44
2023-04-18T23:34:58.653Z,100364.22
2023-04-18T23:38:00.364Z,100360.88
2023-04-18T23:41:02.020Z,100354.72
2023-04-18T23:44:03.719Z,100357.25
2023-04-18T23:47:05.938Z,100359.78
2023-04-18T23:50:08.315Z,100349.22
2023-04-18T23:53:09.966Z,100347.34
2023-04-18T23:56:11.610Z,100347.41
2023-04-18T23:59:13.254Z,100345.63
